sensor_id;sensor_type;location;lat;lon;timestamp;P1;durP1;ratioP1;P2;durP2;ratioP2
20298;SDS011;10308;42.688;23.256;2022-12-10T00:02:08;11.68;;;8.35;;
20298;SDS011;10308;42.688;23.256;2022-12-10T00:04:35;10.82;;;8.05;;
20298;SDS011;10308;42.688;23.256;2022-12-10T00:07:02;11.15;;;7.53;;
20298;SDS011;10308;42.688;23.256;2022-12-10T00:09:30;11.18;;;8.30;;
20298;SDS011;10308;42.688;23.256;2022-12-10T00:11:57;10.05;;;7.38;;
20298;SDS011;10308;42.688;23.256;2022-12-10T00:14:23;10.23;;;7.97;;
20298;SDS011;10308;42.688;23.256;2022-12-10T00:16:50;10.65;;;7.35;;
20298;SDS011;10308;42.688;23.256;2022-12-10T00:19:17;9.73;;;7.70;;
20298;SDS011;10308;42.688;23.256;2022-12-10T00:21:44;11.75;;;8.23;;
20298;SDS011;10308;42.688;23.256;2022-12-10T00:24:11;11.93;;;8.27;;
20298;SDS011;10308;42.688;23.256;2022-12-10T00:26:39;10.52;;;7.80;;
20298;SDS011;10308;42.688;23.256;2022-12-10T00:29:10;10.85;;;7.90;;
20298;SDS011;10308;42.688;23.256;2022-12-10T00:31:37;12.02;;;8.48;;
20298;SDS011;10308;42.688;23.256;2022-12-10T00:34:05;11.85;;;8.35;;
20298;SDS011;10308;42.688;23.256;2022-12-10T00:36:36;11.13;;;8.90;;
20298;SDS011;10308;42.688;23.256;2022-12-10T00:39:04;10.65;;;8.55;;
20298;SDS011;10308;42.688;23.256;2022-12-10T00:41:31;11.90;;;8.63;;
20298;SDS011;10308;42.688;23.256;2022-12-10T00:43:59;12.77;;;9.70;;
20298;SDS011;10308;42.688;23.256;2022-12-10T00:46:26;15.60;;;9.63;;
20298;SDS011;10308;42.688;23.256;2022-12-10T00:48:53;14.48;;;10.18;;
20298;SDS011;10308;42.688;23.256;2022-12-10T00:51:21;15.77;;;9.73;;
20298;SDS011;10308;42.688;23.256;2022-12-10T00:53:49;13.13;;;8.82;;
20298;SDS011;10308;42.688;23.256;2022-12-10T00:56:18;14.13;;;8.43;;
20298;SDS011;10308;42.688;23.256;2022-12-10T00:58:47;13.95;;;9.30;;
20298;SDS011;10308;42.688;23.256;2022-12-10T01:01:17;13.75;;;9.75;;
20298;SDS011;10308;42.688;23.256;2022-12-10T01:03:45;12.55;;;8.82;;
20298;SDS011;10308;42.688;23.256;2022-12-10T01:06:14;12.10;;;7.28;;
20298;SDS011;10308;42.688;23.256;2022-12-10T01:08:42;11.73;;;7.85;;
20298;SDS011;10308;42.688;23.256;2022-12-10T01:11:10;10.00;;;7.28;;
20298;SDS011;10308;42.688;23.256;2022-12-10T01:13:38;10.60;;;7.53;;
20298;SDS011;10308;42.688;23.256;2022-12-10T01:16:06;11.90;;;7.60;;
20298;SDS011;10308;42.688;23.256;2022-12-10T01:18:35;9.65;;;7.55;;
20298;SDS011;10308;42.688;23.256;2022-12-10T01:21:02;9.23;;;7.38;;
20298;SDS011;10308;42.688;23.256;2022-12-10T01:23:31;13.30;;;7.65;;
20298;SDS011;10308;42.688;23.256;2022-12-10T01:25:59;10.98;;;7.45;;
20298;SDS011;10308;42.688;23.256;2022-12-10T01:28:27;8.82;;;7.35;;
20298;SDS011;10308;42.688;23.256;2022-12-10T01:30:55;8.88;;;6.60;;
20298;SDS011;10308;42.688;23.256;2022-12-10T01:33:22;9.30;;;6.88;;
20298;SDS011;10308;42.688;23.256;2022-12-10T01:35:50;11.40;;;7.22;;
20298;SDS011;10308;42.688;23.256;2022-12-10T01:38:17;9.35;;;7.00;;
20298;SDS011;10308;42.688;23.256;2022-12-10T01:40:44;8.73;;;6.93;;
20298;SDS011;10308;42.688;23.256;2022-12-10T01:43:11;12.52;;;7.70;;
20298;SDS011;10308;42.688;23.256;2022-12-10T01:45:38;12.80;;;7.50;;
20298;SDS011;10308;42.688;23.256;2022-12-10T01:48:05;11.98;;;7.70;;
20298;SDS011;10308;42.688;23.256;2022-12-10T01:50:32;9.65;;;6.95;;
20298;SDS011;10308;42.688;23.256;2022-12-10T01:53:00;11.15;;;7.07;;
20298;SDS011;10308;42.688;23.256;2022-12-10T01:55:42;9.35;;;7.43;;
20298;SDS011;10308;42.688;23.256;2022-12-10T01:58:13;9.23;;;7.47;;
20298;SDS011;10308;42.688;23.256;2022-12-10T02:00:43;12.05;;;7.93;;
20298;SDS011;10308;42.688;23.256;2022-12-10T02:03:15;12.18;;;7.72;;
20298;SDS011;10308;42.688;23.256;2022-12-10T02:05:47;9.07;;;7.22;;
20298;SDS011;10308;42.688;23.256;2022-12-10T02:08:22;13.05;;;7.88;;
20298;SDS011;10308;42.688;23.256;2022-12-10T02:10:55;9.32;;;6.97;;
20298;SDS011;10308;42.688;23.256;2022-12-10T02:13:27;8.43;;;6.75;;
20298;SDS011;10308;42.688;23.256;2022-12-10T02:15:58;9.57;;;7.70;;
20298;SDS011;10308;42.688;23.256;2022-12-10T02:18:29;8.73;;;6.28;;
20298;SDS011;10308;42.688;23.256;2022-12-10T02:21:00;10.80;;;8.13;;
20298;SDS011;10308;42.688;23.256;2022-12-10T02:23:32;9.15;;;7.15;;
20298;SDS011;10308;42.688;23.256;2022-12-10T02:26:03;10.40;;;6.78;;
20298;SDS011;10308;42.688;23.256;2022-12-10T02:28:34;10.20;;;6.95;;
20298;SDS011;10308;42.688;23.256;2022-12-10T02:31:05;8.80;;;6.93;;
20298;SDS011;10308;42.688;23.256;2022-12-10T02:33:32;10.13;;;7.00;;
20298;SDS011;10308;42.688;23.256;2022-12-10T02:35:59;9.43;;;7.05;;
20298;SDS011;10308;42.688;23.256;2022-12-10T02:38:28;10.15;;;7.82;;
20298;SDS011;10308;42.688;23.256;2022-12-10T02:40:57;9.85;;;7.50;;
20298;SDS011;10308;42.688;23.256;2022-12-10T02:43:25;11.20;;;7.75;;
20298;SDS011;10308;42.688;23.256;2022-12-10T02:45:54;13.50;;;8.30;;
20298;SDS011;10308;42.688;23.256;2022-12-10T02:48:23;10.13;;;8.02;;
20298;SDS011;10308;42.688;23.256;2022-12-10T02:50:50;9.57;;;7.97;;
20298;SDS011;10308;42.688;23.256;2022-12-10T02:53:17;14.13;;;9.90;;
20298;SDS011;10308;42.688;23.256;2022-12-10T02:55:47;11.93;;;9.45;;
20298;SDS011;10308;42.688;23.256;2022-12-10T02:58:23;11.52;;;9.77;;
20298;SDS011;10308;42.688;23.256;2022-12-10T03:00:54;11.52;;;9.32;;
20298;SDS011;10308;42.688;23.256;2022-12-10T03:03:28;11.77;;;8.85;;
20298;SDS011;10308;42.688;23.256;2022-12-10T03:06:05;11.43;;;9.68;;
20298;SDS011;10308;42.688;23.256;2022-12-10T03:08:38;12.18;;;8.85;;
20298;SDS011;10308;42.688;23.256;2022-12-10T03:11:08;10.27;;;8.32;;
20298;SDS011;10308;42.688;23.256;2022-12-10T03:13:39;10.05;;;8.38;;
20298;SDS011;10308;42.688;23.256;2022-12-10T03:16:10;12.32;;;8.85;;
20298;SDS011;10308;42.688;23.256;2022-12-10T03:18:39;10.90;;;9.32;;
20298;SDS011;10308;42.688;23.256;2022-12-10T03:21:06;10.35;;;8.45;;
20298;SDS011;10308;42.688;23.256;2022-12-10T03:23:35;10.73;;;9.32;;
20298;SDS011;10308;42.688;23.256;2022-12-10T03:26:04;10.65;;;8.73;;
20298;SDS011;10308;42.688;23.256;2022-12-10T03:28:32;9.75;;;7.45;;
20298;SDS011;10308;42.688;23.256;2022-12-10T03:31:01;12.90;;;7.65;;
20298;SDS011;10308;42.688;23.256;2022-12-10T03:33:29;10.10;;;7.28;;
20298;SDS011;10308;42.688;23.256;2022-12-10T03:35:58;10.85;;;7.40;;
20298;SDS011;10308;42.688;23.256;2022-12-10T03:38:25;13.77;;;7.80;;
20298;SDS011;10308;42.688;23.256;2022-12-10T03:40:52;11.30;;;8.05;;
20298;SDS011;10308;42.688;23.256;2022-12-10T03:43:20;9.15;;;7.90;;
20298;SDS011;10308;42.688;23.256;2022-12-10T03:45:47;10.80;;;8.10;;
20298;SDS011;10308;42.688;23.256;2022-12-10T03:48:14;10.82;;;7.55;;
20298;SDS011;10308;42.688;23.256;2022-12-10T03:50:41;11.95;;;7.40;;
20298;SDS011;10308;42.688;23.256;2022-12-10T03:53:09;9.90;;;7.15;;
20298;SDS011;10308;42.688;23.256;2022-12-10T03:55:36;8.77;;;7.70;;
20298;SDS011;10308;42.688;23.256;2022-12-10T03:58:05;11.43;;;8.05;;
20298;SDS011;10308;42.688;23.256;2022-12-10T04:00:32;9.77;;;7.82;;
20298;SDS011;10308;42.688;23.256;2022-12-10T04:02:58;12.10;;;7.88;;
20298;SDS011;10308;42.688;23.256;2022-12-10T04:05:25;11.07;;;8.00;;
20298;SDS011;10308;42.688;23.256;2022-12-10T04:07:52;9.13;;;8.18;;
20298;SDS011;10308;42.688;23.256;2022-12-10T04:10:20;10.73;;;8.18;;
20298;SDS011;10308;42.688;23.256;2022-12-10T04:12:47;11.32;;;7.85;;
20298;SDS011;10308;42.688;23.256;2022-12-10T04:15:33;10.10;;;7.35;;
20298;SDS011;10308;42.688;23.256;2022-12-10T04:18:22;8.70;;;6.75;;
20298;SDS011;10308;42.688;23.256;2022-12-10T04:20:49;12.18;;;8.35;;
20298;SDS011;10308;42.688;23.256;2022-12-10T04:23:33;12.50;;;10.45;;
20298;SDS011;10308;42.688;23.256;2022-12-10T04:26:18;11.02;;;8.38;;
20298;SDS011;10308;42.688;23.256;2022-12-10T04:29:02;10.23;;;8.45;;
20298;SDS011;10308;42.688;23.256;2022-12-10T04:31:30;10.88;;;7.85;;
20298;SDS011;10308;42.688;23.256;2022-12-10T04:33:57;10.55;;;9.27;;
20298;SDS011;10308;42.688;23.256;2022-12-10T04:36:24;12.50;;;9.27;;
20298;SDS011;10308;42.688;23.256;2022-12-10T04:38:51;11.57;;;7.15;;
20298;SDS011;10308;42.688;23.256;2022-12-10T04:41:20;9.25;;;6.75;;
20298;SDS011;10308;42.688;23.256;2022-12-10T04:43:47;6.65;;;6.05;;
20298;SDS011;10308;42.688;23.256;2022-12-10T04:46:14;7.47;;;6.15;;
20298;SDS011;10308;42.688;23.256;2022-12-10T04:48:41;9.65;;;6.07;;
20298;SDS011;10308;42.688;23.256;2022-12-10T04:51:07;7.55;;;5.40;;
20298;SDS011;10308;42.688;23.256;2022-12-10T04:53:34;8.90;;;5.95;;
20298;SDS011;10308;42.688;23.256;2022-12-10T04:56:01;6.22;;;5.05;;
20298;SDS011;10308;42.688;23.256;2022-12-10T04:58:31;8.98;;;6.00;;
20298;SDS011;10308;42.688;23.256;2022-12-10T05:01:00;6.43;;;5.47;;
20298;SDS011;10308;42.688;23.256;2022-12-10T05:03:28;7.00;;;5.72;;
20298;SDS011;10308;42.688;23.256;2022-12-10T05:05:55;8.18;;;6.07;;
20298;SDS011;10308;42.688;23.256;2022-12-10T05:08:22;8.18;;;6.35;;
20298;SDS011;10308;42.688;23.256;2022-12-10T05:10:49;7.57;;;6.75;;
20298;SDS011;10308;42.688;23.256;2022-12-10T05:13:16;8.23;;;5.95;;
20298;SDS011;10308;42.688;23.256;2022-12-10T05:15:44;8.05;;;6.25;;
20298;SDS011;10308;42.688;23.256;2022-12-10T05:18:11;8.68;;;7.50;;
20298;SDS011;10308;42.688;23.256;2022-12-10T05:20:38;7.32;;;6.32;;
20298;SDS011;10308;42.688;23.256;2022-12-10T05:23:05;6.80;;;6.15;;
20298;SDS011;10308;42.688;23.256;2022-12-10T05:25:49;10.07;;;7.00;;
20298;SDS011;10308;42.688;23.256;2022-12-10T05:28:25;9.73;;;6.65;;
20298;SDS011;10308;42.688;23.256;2022-12-10T05:30:53;9.05;;;6.70;;
20298;SDS011;10308;42.688;23.256;2022-12-10T05:33:21;10.50;;;7.40;;
20298;SDS011;10308;42.688;23.256;2022-12-10T05:35:52;8.80;;;7.75;;
20298;SDS011;10308;42.688;23.256;2022-12-10T05:38:19;8.98;;;6.82;;
20298;SDS011;10308;42.688;23.256;2022-12-10T05:40:46;8.18;;;6.57;;
20298;SDS011;10308;42.688;23.256;2022-12-10T05:43:13;10.45;;;6.43;;
20298;SDS011;10308;42.688;23.256;2022-12-10T05:45:40;7.38;;;6.43;;
20298;SDS011;10308;42.688;23.256;2022-12-10T05:48:09;7.82;;;7.03;;
20298;SDS011;10308;42.688;23.256;2022-12-10T05:50:37;9.00;;;7.10;;
20298;SDS011;10308;42.688;23.256;2022-12-10T05:53:04;7.65;;;6.90;;
20298;SDS011;10308;42.688;23.256;2022-12-10T05:55:31;8.68;;;7.38;;
20298;SDS011;10308;42.688;23.256;2022-12-10T05:57:58;9.40;;;7.35;;
20298;SDS011;10308;42.688;23.256;2022-12-10T06:00:25;10.52;;;7.65;;
20298;SDS011;10308;42.688;23.256;2022-12-10T06:02:52;11.25;;;8.18;;
20298;SDS011;10308;42.688;23.256;2022-12-10T06:05:20;9.93;;;8.07;;
20298;SDS011;10308;42.688;23.256;2022-12-10T06:07:47;10.48;;;7.50;;
20298;SDS011;10308;42.688;23.256;2022-12-10T06:10:14;10.30;;;7.32;;
20298;SDS011;10308;42.688;23.256;2022-12-10T06:12:41;8.45;;;7.60;;
20298;SDS011;10308;42.688;23.256;2022-12-10T06:15:08;9.25;;;7.93;;
20298;SDS011;10308;42.688;23.256;2022-12-10T06:17:35;9.57;;;8.45;;
20298;SDS011;10308;42.688;23.256;2022-12-10T06:20:02;11.35;;;8.57;;
20298;SDS011;10308;42.688;23.256;2022-12-10T06:22:31;12.20;;;7.85;;
20298;SDS011;10308;42.688;23.256;2022-12-10T06:24:59;10.80;;;8.60;;
20298;SDS011;10308;42.688;23.256;2022-12-10T06:27:26;11.55;;;8.15;;
20298;SDS011;10308;42.688;23.256;2022-12-10T06:29:52;8.18;;;7.38;;
20298;SDS011;10308;42.688;23.256;2022-12-10T06:32:19;9.60;;;7.30;;
20298;SDS011;10308;42.688;23.256;2022-12-10T06:34:46;8.35;;;7.43;;
20298;SDS011;10308;42.688;23.256;2022-12-10T06:37:13;11.63;;;8.40;;
20298;SDS011;10308;42.688;23.256;2022-12-10T06:39:41;11.50;;;8.15;;
20298;SDS011;10308;42.688;23.256;2022-12-10T06:42:08;10.00;;;8.25;;
20298;SDS011;10308;42.688;23.256;2022-12-10T06:44:34;12.95;;;8.30;;
20298;SDS011;10308;42.688;23.256;2022-12-10T06:47:01;8.77;;;7.63;;
20298;SDS011;10308;42.688;23.256;2022-12-10T06:49:28;11.60;;;8.20;;
20298;SDS011;10308;42.688;23.256;2022-12-10T06:51:55;12.10;;;8.52;;
20298;SDS011;10308;42.688;23.256;2022-12-10T06:54:22;9.25;;;7.80;;
20298;SDS011;10308;42.688;23.256;2022-12-10T06:56:50;9.70;;;7.55;;
20298;SDS011;10308;42.688;23.256;2022-12-10T06:59:17;10.82;;;8.18;;
20298;SDS011;10308;42.688;23.256;2022-12-10T07:01:45;9.43;;;7.63;;
20298;SDS011;10308;42.688;23.256;2022-12-10T07:04:12;9.40;;;8.27;;
20298;SDS011;10308;42.688;23.256;2022-12-10T07:06:39;13.38;;;10.25;;
20298;SDS011;10308;42.688;23.256;2022-12-10T07:09:06;13.50;;;12.02;;
20298;SDS011;10308;42.688;23.256;2022-12-10T07:11:34;13.50;;;11.80;;
20298;SDS011;10308;42.688;23.256;2022-12-10T07:14:04;10.63;;;9.50;;
20298;SDS011;10308;42.688;23.256;2022-12-10T07:16:33;10.90;;;8.73;;
20298;SDS011;10308;42.688;23.256;2022-12-10T07:19:01;15.05;;;8.35;;
20298;SDS011;10308;42.688;23.256;2022-12-10T07:21:29;17.25;;;8.18;;
20298;SDS011;10308;42.688;23.256;2022-12-10T07:23:59;14.00;;;10.02;;
20298;SDS011;10308;42.688;23.256;2022-12-10T07:26:28;17.08;;;9.57;;
20298;SDS011;10308;42.688;23.256;2022-12-10T07:28:55;12.23;;;8.93;;
20298;SDS011;10308;42.688;23.256;2022-12-10T07:31:24;12.13;;;8.20;;
20298;SDS011;10308;42.688;23.256;2022-12-10T07:33:51;11.20;;;7.90;;
20298;SDS011;10308;42.688;23.256;2022-12-10T07:36:18;11.48;;;7.55;;
20298;SDS011;10308;42.688;23.256;2022-12-10T07:38:47;8.43;;;7.45;;
20298;SDS011;10308;42.688;23.256;2022-12-10T07:41:14;11.05;;;7.57;;
20298;SDS011;10308;42.688;23.256;2022-12-10T07:43:42;8.95;;;7.07;;
20298;SDS011;10308;42.688;23.256;2022-12-10T07:46:11;7.45;;;6.55;;
20298;SDS011;10308;42.688;23.256;2022-12-10T07:48:41;8.27;;;7.07;;
20298;SDS011;10308;42.688;23.256;2022-12-10T07:51:10;8.70;;;7.20;;
20298;SDS011;10308;42.688;23.256;2022-12-10T07:53:38;9.60;;;7.40;;
20298;SDS011;10308;42.688;23.256;2022-12-10T07:56:06;8.13;;;7.25;;
20298;SDS011;10308;42.688;23.256;2022-12-10T07:58:33;8.55;;;6.82;;
20298;SDS011;10308;42.688;23.256;2022-12-10T08:01:05;10.27;;;7.20;;
20298;SDS011;10308;42.688;23.256;2022-12-10T08:03:33;8.23;;;6.63;;
20298;SDS011;10308;42.688;23.256;2022-12-10T08:06:01;8.60;;;7.53;;
20298;SDS011;10308;42.688;23.256;2022-12-10T08:08:29;8.77;;;6.93;;
20298;SDS011;10308;42.688;23.256;2022-12-10T08:10:58;9.40;;;6.63;;
20298;SDS011;10308;42.688;23.256;2022-12-10T08:13:25;9.00;;;7.60;;
20298;SDS011;10308;42.688;23.256;2022-12-10T08:15:52;12.75;;;7.45;;
20298;SDS011;10308;42.688;23.256;2022-12-10T08:18:18;8.98;;;7.50;;
20298;SDS011;10308;42.688;23.256;2022-12-10T08:20:45;10.52;;;7.60;;
20298;SDS011;10308;42.688;23.256;2022-12-10T08:23:14;11.98;;;8.30;;
20298;SDS011;10308;42.688;23.256;2022-12-10T08:25:41;10.77;;;8.02;;
20298;SDS011;10308;42.688;23.256;2022-12-10T08:28:08;11.27;;;9.68;;
20298;SDS011;10308;42.688;23.256;2022-12-10T08:30:35;11.00;;;8.32;;
20298;SDS011;10308;42.688;23.256;2022-12-10T08:33:02;10.13;;;8.95;;
20298;SDS011;10308;42.688;23.256;2022-12-10T08:35:28;10.02;;;8.38;;
20298;SDS011;10308;42.688;23.256;2022-12-10T08:37:56;15.50;;;13.90;;
20298;SDS011;10308;42.688;23.256;2022-12-10T08:40:24;21.77;;;19.48;;
20298;SDS011;10308;42.688;23.256;2022-12-10T08:42:51;20.83;;;18.52;;
20298;SDS011;10308;42.688;23.256;2022-12-10T08:45:18;21.95;;;19.85;;
20298;SDS011;10308;42.688;23.256;2022-12-10T08:47:45;21.45;;;18.05;;
20298;SDS011;10308;42.688;23.256;2022-12-10T08:50:12;19.77;;;17.55;;
20298;SDS011;10308;42.688;23.256;2022-12-10T08:52:38;49.40;;;45.25;;
20298;SDS011;10308;42.688;23.256;2022-12-10T08:55:06;51.67;;;47.28;;
20298;SDS011;10308;42.688;23.256;2022-12-10T08:57:35;35.53;;;32.42;;
20298;SDS011;10308;42.688;23.256;2022-12-10T09:00:02;33.35;;;30.15;;
20298;SDS011;10308;42.688;23.256;2022-12-10T09:02:29;14.60;;;13.10;;
20298;SDS011;10308;42.688;23.256;2022-12-10T09:04:56;28.52;;;26.00;;
20298;SDS011;10308;42.688;23.256;2022-12-10T09:07:23;50.28;;;45.90;;
20298;SDS011;10308;42.688;23.256;2022-12-10T09:09:50;20.15;;;18.25;;
20298;SDS011;10308;42.688;23.256;2022-12-10T09:12:17;11.90;;;10.55;;
20298;SDS011;10308;42.688;23.256;2022-12-10T09:14:45;11.65;;;9.70;;
20298;SDS011;10308;42.688;23.256;2022-12-10T09:17:12;10.32;;;9.00;;
20298;SDS011;10308;42.688;23.256;2022-12-10T09:19:39;12.50;;;9.10;;
20298;SDS011;10308;42.688;23.256;2022-12-10T09:22:06;12.25;;;11.15;;
20298;SDS011;10308;42.688;23.256;2022-12-10T09:24:33;15.60;;;13.23;;
20298;SDS011;10308;42.688;23.256;2022-12-10T09:27:00;15.98;;;13.75;;
20298;SDS011;10308;42.688;23.256;2022-12-10T09:29:27;17.05;;;15.32;;
20298;SDS011;10308;42.688;23.256;2022-12-10T09:31:56;10.18;;;9.10;;
20298;SDS011;10308;42.688;23.256;2022-12-10T09:34:23;12.02;;;9.70;;
20298;SDS011;10308;42.688;23.256;2022-12-10T09:36:49;12.43;;;9.57;;
20298;SDS011;10308;42.688;23.256;2022-12-10T09:39:16;14.50;;;12.80;;
20298;SDS011;10308;42.688;23.256;2022-12-10T09:41:47;18.55;;;16.67;;
20298;SDS011;10308;42.688;23.256;2022-12-10T09:44:27;16.15;;;12.30;;
20298;SDS011;10308;42.688;23.256;2022-12-10T09:47:00;10.88;;;9.88;;
20298;SDS011;10308;42.688;23.256;2022-12-10T09:49:30;10.85;;;9.73;;
20298;SDS011;10308;42.688;23.256;2022-12-10T09:52:01;11.40;;;9.73;;
20298;SDS011;10308;42.688;23.256;2022-12-10T09:54:31;11.27;;;9.57;;
20298;SDS011;10308;42.688;23.256;2022-12-10T09:56:59;10.38;;;9.38;;
20298;SDS011;10308;42.688;23.256;2022-12-10T09:59:29;9.93;;;8.55;;
20298;SDS011;10308;42.688;23.256;2022-12-10T10:02:02;8.45;;;7.65;;
20298;SDS011;10308;42.688;23.256;2022-12-10T10:04:43;10.70;;;8.00;;
20298;SDS011;10308;42.688;23.256;2022-12-10T10:07:10;9.23;;;8.27;;
20298;SDS011;10308;42.688;23.256;2022-12-10T10:09:43;9.43;;;8.50;;
20298;SDS011;10308;42.688;23.256;2022-12-10T10:12:11;12.93;;;11.65;;
20298;SDS011;10308;42.688;23.256;2022-12-10T10:14:39;12.68;;;11.02;;
20298;SDS011;10308;42.688;23.256;2022-12-10T10:17:09;13.35;;;11.75;;
20298;SDS011;10308;42.688;23.256;2022-12-10T10:19:38;14.35;;;10.45;;
20298;SDS011;10308;42.688;23.256;2022-12-10T10:22:06;11.82;;;9.90;;
20298;SDS011;10308;42.688;23.256;2022-12-10T10:24:36;11.20;;;9.38;;
20298;SDS011;10308;42.688;23.256;2022-12-10T10:27:09;10.77;;;8.55;;
20298;SDS011;10308;42.688;23.256;2022-12-10T10:29:39;10.73;;;7.65;;
20298;SDS011;10308;42.688;23.256;2022-12-10T10:32:12;8.48;;;7.13;;
20298;SDS011;10308;42.688;23.256;2022-12-10T10:34:41;8.90;;;7.50;;
20298;SDS011;10308;42.688;23.256;2022-12-10T10:37:11;13.88;;;10.98;;
20298;SDS011;10308;42.688;23.256;2022-12-10T10:39:41;12.95;;;9.95;;
20298;SDS011;10308;42.688;23.256;2022-12-10T10:42:26;9.82;;;7.32;;
20298;SDS011;10308;42.688;23.256;2022-12-10T10:44:56;8.02;;;7.22;;
20298;SDS011;10308;42.688;23.256;2022-12-10T10:47:25;10.57;;;6.90;;
20298;SDS011;10308;42.688;23.256;2022-12-10T10:49:54;8.57;;;6.85;;
20298;SDS011;10308;42.688;23.256;2022-12-10T10:52:20;8.15;;;6.80;;
20298;SDS011;10308;42.688;23.256;2022-12-10T10:54:47;12.45;;;7.35;;
20298;SDS011;10308;42.688;23.256;2022-12-10T10:57:15;12.65;;;11.30;;
20298;SDS011;10308;42.688;23.256;2022-12-10T10:59:46;15.43;;;13.82;;
20298;SDS011;10308;42.688;23.256;2022-12-10T11:02:16;12.35;;;10.82;;
20298;SDS011;10308;42.688;23.256;2022-12-10T11:04:47;9.85;;;8.80;;
20298;SDS011;10308;42.688;23.256;2022-12-10T11:07:22;10.73;;;9.23;;
20298;SDS011;10308;42.688;23.256;2022-12-10T11:09:55;13.07;;;9.50;;
20298;SDS011;10308;42.688;23.256;2022-12-10T11:12:29;15.05;;;13.55;;
20298;SDS011;10308;42.688;23.256;2022-12-10T11:15:00;12.00;;;10.80;;
20298;SDS011;10308;42.688;23.256;2022-12-10T11:17:27;7.78;;;7.05;;
20298;SDS011;10308;42.688;23.256;2022-12-10T11:19:57;11.50;;;10.30;;
20298;SDS011;10308;42.688;23.256;2022-12-10T11:22:27;14.15;;;12.13;;
20298;SDS011;10308;42.688;23.256;2022-12-10T11:24:55;11.23;;;9.80;;
20298;SDS011;10308;42.688;23.256;2022-12-10T11:27:34;14.60;;;13.20;;
20298;SDS011;10308;42.688;23.256;2022-12-10T11:30:04;14.77;;;13.27;;
20298;SDS011;10308;42.688;23.256;2022-12-10T11:32:40;13.13;;;10.48;;
20298;SDS011;10308;42.688;23.256;2022-12-10T11:35:16;10.88;;;7.95;;
20298;SDS011;10308;42.688;23.256;2022-12-10T11:37:49;10.23;;;8.73;;
20298;SDS011;10308;42.688;23.256;2022-12-10T11:40:31;9.80;;;7.65;;
20298;SDS011;10308;42.688;23.256;2022-12-10T11:43:04;9.45;;;8.48;;
20298;SDS011;10308;42.688;23.256;2022-12-10T11:45:43;10.20;;;8.48;;
20298;SDS011;10308;42.688;23.256;2022-12-10T11:48:17;8.52;;;7.22;;
20298;SDS011;10308;42.688;23.256;2022-12-10T11:50:56;9.02;;;8.15;;
20298;SDS011;10308;42.688;23.256;2022-12-10T11:53:32;10.13;;;9.00;;
20298;SDS011;10308;42.688;23.256;2022-12-10T11:56:09;9.52;;;6.80;;
20298;SDS011;10308;42.688;23.256;2022-12-10T11:58:50;8.57;;;7.68;;
20298;SDS011;10308;42.688;23.256;2022-12-10T12:01:28;9.00;;;7.68;;
20298;SDS011;10308;42.688;23.256;2022-12-10T12:04:10;8.07;;;6.53;;
20298;SDS011;10308;42.688;23.256;2022-12-10T12:06:57;7.82;;;7.03;;
20298;SDS011;10308;42.688;23.256;2022-12-10T12:09:34;9.23;;;7.88;;
20298;SDS011;10308;42.688;23.256;2022-12-10T12:12:10;12.05;;;8.80;;
20298;SDS011;10308;42.688;23.256;2022-12-10T12:14:44;13.98;;;10.77;;
20298;SDS011;10308;42.688;23.256;2022-12-10T12:17:16;19.15;;;12.05;;
20298;SDS011;10308;42.688;23.256;2022-12-10T12:19:46;17.20;;;13.48;;
20298;SDS011;10308;42.688;23.256;2022-12-10T12:22:22;15.02;;;13.43;;
20298;SDS011;10308;42.688;23.256;2022-12-10T12:24:50;18.88;;;14.73;;
20298;SDS011;10308;42.688;23.256;2022-12-10T12:27:22;11.80;;;8.90;;
20298;SDS011;10308;42.688;23.256;2022-12-10T12:29:53;10.65;;;8.00;;
20298;SDS011;10308;42.688;23.256;2022-12-10T12:32:26;9.52;;;7.45;;
20298;SDS011;10308;42.688;23.256;2022-12-10T12:34:56;6.82;;;6.05;;
20298;SDS011;10308;42.688;23.256;2022-12-10T12:37:29;9.07;;;8.18;;
20298;SDS011;10308;42.688;23.256;2022-12-10T12:40:00;15.07;;;8.48;;
20298;SDS011;10308;42.688;23.256;2022-12-10T12:42:29;12.95;;;8.60;;
20298;SDS011;10308;42.688;23.256;2022-12-10T12:45:01;13.65;;;9.35;;
20298;SDS011;10308;42.688;23.256;2022-12-10T12:47:32;16.65;;;9.45;;
20298;SDS011;10308;42.688;23.256;2022-12-10T12:50:03;9.98;;;7.80;;
20298;SDS011;10308;42.688;23.256;2022-12-10T12:52:33;9.35;;;7.10;;
20298;SDS011;10308;42.688;23.256;2022-12-10T12:55:04;7.13;;;6.43;;
20298;SDS011;10308;42.688;23.256;2022-12-10T12:57:39;7.00;;;6.30;;
20298;SDS011;10308;42.688;23.256;2022-12-10T13:00:10;7.25;;;6.45;;
20298;SDS011;10308;42.688;23.256;2022-12-10T13:02:45;7.30;;;6.57;;
20298;SDS011;10308;42.688;23.256;2022-12-10T13:05:18;10.13;;;7.20;;
20298;SDS011;10308;42.688;23.256;2022-12-10T13:10:46;10.38;;;7.18;;
20298;SDS011;10308;42.688;23.256;2022-12-10T13:13:21;8.77;;;7.28;;
20298;SDS011;10308;42.688;23.256;2022-12-10T13:15:50;9.07;;;7.70;;
20298;SDS011;10308;42.688;23.256;2022-12-10T13:18:22;9.60;;;7.82;;
20298;SDS011;10308;42.688;23.256;2022-12-10T13:21:16;8.50;;;7.57;;
20298;SDS011;10308;42.688;23.256;2022-12-10T13:23:52;9.60;;;8.30;;
20298;SDS011;10308;42.688;23.256;2022-12-10T13:26:26;12.23;;;8.65;;
20298;SDS011;10308;42.688;23.256;2022-12-10T13:28:54;11.98;;;8.63;;
20298;SDS011;10308;42.688;23.256;2022-12-10T13:31:32;15.40;;;12.88;;
20298;SDS011;10308;42.688;23.256;2022-12-10T13:34:06;17.80;;;13.73;;
20298;SDS011;10308;42.688;23.256;2022-12-10T13:39:53;29.38;;;24.98;;
20298;SDS011;10308;42.688;23.256;2022-12-10T13:42:32;29.83;;;27.05;;
20298;SDS011;10308;42.688;23.256;2022-12-10T13:45:25;21.90;;;17.83;;
20298;SDS011;10308;42.688;23.256;2022-12-10T13:48:25;16.25;;;14.02;;
20298;SDS011;10308;42.688;23.256;2022-12-10T13:50:56;14.25;;;12.50;;
20298;SDS011;10308;42.688;23.256;2022-12-10T13:53:44;13.55;;;10.20;;
20298;SDS011;10308;42.688;23.256;2022-12-10T13:56:17;12.50;;;10.23;;
20298;SDS011;10308;42.688;23.256;2022-12-10T13:58:50;17.05;;;10.60;;
20298;SDS011;10308;42.688;23.256;2022-12-10T14:01:28;14.85;;;11.75;;
20298;SDS011;10308;42.688;23.256;2022-12-10T14:04:01;13.90;;;10.65;;
20298;SDS011;10308;42.688;23.256;2022-12-10T14:06:36;10.68;;;9.55;;
20298;SDS011;10308;42.688;23.256;2022-12-10T14:09:06;11.85;;;10.13;;
20298;SDS011;10308;42.688;23.256;2022-12-10T14:11:39;11.85;;;10.57;;
20298;SDS011;10308;42.688;23.256;2022-12-10T14:14:12;11.38;;;9.75;;
20298;SDS011;10308;42.688;23.256;2022-12-10T14:16:40;12.05;;;8.98;;
20298;SDS011;10308;42.688;23.256;2022-12-10T14:19:10;12.38;;;9.05;;
20298;SDS011;10308;42.688;23.256;2022-12-10T14:21:39;11.73;;;9.00;;
20298;SDS011;10308;42.688;23.256;2022-12-10T14:26:56;11.48;;;8.02;;
20298;SDS011;10308;42.688;23.256;2022-12-10T14:29:26;8.95;;;7.00;;
20298;SDS011;10308;42.688;23.256;2022-12-10T14:31:54;7.90;;;7.10;;
20298;SDS011;10308;42.688;23.256;2022-12-10T14:34:22;13.52;;;9.43;;
20298;SDS011;10308;42.688;23.256;2022-12-10T14:36:52;11.93;;;9.52;;
20298;SDS011;10308;42.688;23.256;2022-12-10T14:39:21;11.73;;;9.80;;
20298;SDS011;10308;42.688;23.256;2022-12-10T14:41:48;17.95;;;8.73;;
20298;SDS011;10308;42.688;23.256;2022-12-10T14:44:17;13.35;;;9.30;;
20298;SDS011;10308;42.688;23.256;2022-12-10T14:46:47;16.33;;;10.63;;
20298;SDS011;10308;42.688;23.256;2022-12-10T14:49:16;12.68;;;9.07;;